Powell, OH (43065)

7:14 PM EDT on September 02, 2015 (GMT -0400)
Bartholomew Run | | Change Station
CLOSE
Current Station
Personal Weather Station
Location: Powell, OH
Elevation: 902 ft
Nearby Weather Stations

Elev 902 ft 40.16 °N, 83.07 °W | Updated 8 minutes ago

Partly Cloudy
Partly Cloudy
75.4 °F
Feels Like 75 °F
N
0.0
Wind Variable Wind from SW
Gusts 0.0 mph

Today
High -- | Low -- °F
--% Chance of Precip.
Yesterday
High -- | Low -- °F
Precip. -- in
7:00 AM 8:02 PM
Waning Gibbous, 76% visible
Pressure 30.02 in
Visibility 10.0 miles
Clouds Few 10000 ft
Heat Index 75 °F
Dew Point 72 °F
Humidity 88%
Rainfall 0.18 in
Snow Depth Not available.
UV 1.0 out of 12
Pollen 10.40 out of 12
Air Quality Not available.
Flu Activity Not available.
SPECI KOSU 022303Z 23007KT 10SM FEW100 25/20 A3002 RMK AO2 LTG DSNT SW T02500200
Pressure 30.02 in
Visibility 10.0 miles
Clouds Few 10000 ft
Heat Index 75 °F
Dew Point 72 °F
Humidity 88%
Rainfall 0.18 in
Snow Depth Not available.
UV 1.0 out of 12
Pollen 10.40 out of 12
Air Quality Not available.
Flu Activity Not available.
SPECI KOSU 022303Z 23007KT 10SM FEW100 25/20 A3002 RMK AO2 LTG DSNT SW T02500200

10-Day Weather Forecast

×

Almanac

Astronomy

Sep. 02, 2015 Rise Set
Actual Time
Civil Twilight
Nautical Twilight
Astronomical Twilight
Moon
Length of Visible Light
Length of Day
Tomorrow will be .
, % of the Moon is Illuminated

Today's Extremes

State Highs State Lows

Community

WunderPhotos

Upload Photos

1,851,823 photos uploaded!

WunderBlogs® & News

Nearby

Air Quality

  Air Quality AQ Index Pollutant
Not available.

Snow Depth

Station Depth Elevation

Earthquake Activity

City Distance Mag. Time & Date
Minimum magnitude displayed is 2.5.

Coastal Water Temperatures

Place Temperature

Stations

Nearby Weather Stations

Station Location Temp. Windchill Dew Point Humidity Wind Precip. Elev Updated Type